Albany, NY (12201)

3:21 AM EST on March 05, 2015 (GMT -0500)
North Greenbush, NY | Change Station
CLOSE
Current Station
Personal Weather Station
Location: Renssleaer, NY
Elevation: 180 ft
Nearby Weather Stations

Elev 180 ft 42.67 °N, 73.71 °W | Updated 3 minutes ago

Overcast
Overcast
29.0 °F
Feels Like 29 °F
N
1.0
Wind Variable Wind from West
Gusts 11.0 mph

Today
High -- | Low -- °F
--% Chance of Precip.
Yesterday
High -- | Low -- °F
Precip. -- in
6:24 AM 5:49 PM
Full, 100% visible
Pressure 29.96 in
Visibility 9.0 miles
Clouds Few 2300 ft
Overcast 3200 ft
Windchill 29 °F
Dew Point 19 °F
Humidity 67%
Rainfall in
Snow Depth Not available.
UV 0 out of 12
Pollen .50 out of 12
Air Quality Not available.
Flu Activity Not available.
METAR KALB 050751Z 30013G23KT 9SM -SN FEW023 OVC032 M01/M08 A2995 RMK AO2 SNB33 SLP146 P0000 T10111083

More Conditions Fewer Conditions

Pressure 29.96 in
Visibility 9.0 miles
Clouds Few 2300 ft
Overcast 3200 ft
Windchill 29 °F
Dew Point 19 °F
Humidity 67%
Rainfall in
Snow Depth Not available.
UV 0 out of 12
Pollen .50 out of 12
Air Quality Not available.
Flu Activity Not available.
METAR KALB 050751Z 30013G23KT 9SM -SN FEW023 OVC032 M01/M08 A2995 RMK AO2 SNB33 SLP146 P0000 T10111083

More Conditions Fewer Conditions

10-Day Weather Forecast

Almanac

Astronomy

Mar. 05, 2015 Rise Set
Actual Time
Civil Twilight
Nautical Twilight
Astronomical Twilight
Moon
Length of Visible Light
Length of Day
Tomorrow will be .
, % of the Moon is Illuminated

Today's Extremes

State Highs State Lows

Community

WunderPhotos

Upload Photos

1,802,704 photos uploaded!

WunderBlogs® & News

Nearby

Air Quality

  Air Quality AQ Index Pollutant
Not available.

Snow Depth

Station Depth Elevation

Earthquake Activity

City Distance Mag. Time & Date
Minimum magnitude displayed is 2.5.

Coastal Water Temperatures

Place Temperature

Nearby Weather Stations